Omaha, Nebraska
Current Conditions -  °F | °C
As of 11:52 AM on Friday 31 Oct 2014 (Local Time) from KOMA Reporting Station
Clear Clear  
Wind Chill: -1°   Ceiling: Unl
Heat Index:   Visibility: 10mi
Dew Point: -7°   Wind: 10mph
Humidity: 48%   Direction: 10°N
Pressure: 30.59"   Gusts: NA
Location:  41.26°N, 95.94°W
Report Text: KOMA 311652Z 01009KT 10SM CLR 03/M07 A3059 RMK AO2 SLP365 T00281072
Loading
Personal Weather Stations






























Interactive Weather Map New forecast layout! Learn more

10-Day Weather Forecast

Advertisements
Track Severe Weather on mobile